ADDS METAR Data INFO
IDs: Format: Raw Decoded Include TAF

Data at: 1732 UTC 21 Sep 2017

KFTW 211653Z 17013KT 10SM SCT027 32/23 A2995 RMK AO2 SLP130 T03170233
KFTW 211553Z 17014KT 10SM OVC021 29/23 A2996 RMK AO2 SLP134 T02940233
KFTW 211453Z 16015G21KT 10SM OVC019 28/23 A2995 RMK AO2 SLP132 T02830233 51012
KFTW 211353Z 17010G19KT 10SM OVC018 27/23 A2995 RMK AO2 SLP130 T02720233
KFTW 211344Z 16013G19KT 10SM BKN018 27/23 A2994 RMK AO2 T02720233
KFTW 211253Z 17010KT 10SM FEW019 27/23 A2993 RMK AO2 SLP125 T02670233
KFTW 211153Z 17009KT 10SM CLR 27/23 A2992 RMK AO2 SLP119 T02670233 10294 20267 53008
KFTW 211053Z 17013KT 10SM FEW018 27/23 A2990 RMK AO2 SLP112 T02670233
KFTW 210953Z 17010KT 10SM CLR 27/23 A2989 RMK AO2 SLP111 T02720233
KFTW 210853Z 17012G18KT 10SM CLR 28/23 A2989 RMK AO2 SLP110 T02780233 53003
KFTW 210753Z 16011KT 10SM CLR 28/23 A2988 RMK AO2 SLP107 T02780228
KFTW 210653Z 15014G19KT 10SM CLR 28/22 A2988 RMK AO2 SLP105 T02830222
KFTW 210553Z 15011KT 10SM CLR 29/22 A2988 RMK AO2 SLP107 T02940217 10344 20294 403720256 51007
KFTW 210453Z 15011KT 10SM CLR 30/22 A2988 RMK AO2 SLP107 T03000222
KFTW 210353Z 16015G22KT 10SM CLR 31/22 A2988 RMK AO2 SLP106 T03110222
KFTW 210253Z 16011KT 10SM CLR 32/22 A2986 RMK AO2 SLP101 T03170217 53022
KFTW 210153Z 15015G24KT 10SM CLR 33/22 A2983 RMK AO2 SLP091 T03280217
KFTW 210053Z 14013KT 10SM CLR 33/22 A2981 RMK AO2 SLP083 T03330217
KFTW 202353Z 14017KT 10SM CLR 35/21 A2979 RMK AO2 SLP077 T03500211 10372 20333 55002
KFTW 202253Z 14014G24KT 10SM CLR 36/22 A2979 RMK AO2 SLP076 T03610217
KFTW 202153Z 18013G24KT 10SM CLR 37/22 A2979 RMK AO2 SLP076 T03670217
KFTW 202053Z 18015G23KT 10SM FEW055 37/22 A2980 RMK AO2 SLP078 T03670222 57021
KFTW 201953Z 16014G20KT 10SM CLR 37/23 A2982 RMK AO2 SLP086 T03670228
KFTW 201853Z 16016G22KT 10SM CLR 36/23 A2984 RMK AO2 SLP092 T03610228
KFTW 201753Z 17013G24KT 10SM CLR 34/23 A2986 RMK AO2 SLP099 T03390228 10344 20261 58012
KFTW 201653Z 18012G20KT 10SM CLR 33/23 A2988 RMK AO2 SLP106 T03280228
KFTW 201553Z 18011G22KT 10SM CLR 31/23 A2989 RMK AO2 PK WND 19026/1456 SLP112 T03060228
KFTW 201505Z 18011G26KT 10SM SCT018 29/23 A2990 RMK AO2 PK WND 19026/1456 T02940233
KFTW 201453Z 18012G23KT 10SM BKN018 28/23 A2990 RMK AO2 SLP113 T02830233 51012
KFTW 201353Z 17016G22KT 10SM BKN015 27/23 A2989 RMK AO2 SLP110 T02670228
KFTW 201253Z 16012KT 10SM CLR 26/23 A2987 RMK AO2 SLP105 T02610228
KFTW 201153Z 16010KT 10SM CLR 26/22 A2986 RMK AO2 SLP100 T02610222 10289 20261 53012
KFTW 201053Z 16013KT 10SM CLR 26/22 A2984 RMK AO2 SLP093 T02610222
KFTW 200953Z 17012KT 10SM CLR 27/23 A2983 RMK AO2 SLP088 T02670228
KFTW 200853Z 18012KT 10SM CLR 27/22 A2982 RMK AO2 SLP088 T02720222 50000
KFTW 200753Z 17014G21KT 10SM CLR 28/22 A2982 RMK AO2 SLP088 T02780222
KFTW 200653Z 17015KT 10SM CLR 29/22 A2983 RMK AO2 SLP089 T02890222
KFTW 200553Z 15007KT 10SM CLR 27/22 A2982 RMK AO2 SLP088 T02720217 10328 20267 403720244 58015